ENSG Airport Information

Runway Information
Runway 06 Length 3150 ft width 98 ft
Elevation 1619 ft Threshold ft Heading 59
Runway 24 Length 3150 ft Width 98 ft
Elevation 1634 ft Threshold ft Heading 239
Airport Frequencies
Type AFIS Name Sogndal Frequency 119.3 MHZ
Type INFO Name Sogndal In Frequency 121.5 MHZ
Airport Navaids
Type VOR-DME Name Sogndal Frequency 114200 KHZ
Airport Weather Information & NOTAM
ADDS - METARS form results

(1457 UTC 14 August 2022)
Data provider http://aviationweather.gov/metar/data/
 
METAR text: ENSG 141450Z VRB02KT CAVOK 23/12 Q1014 RMK WIND 3806FT 31007KT
Conditions at: ENSG (SOGNDAL/HAUKASEN, NO) observed 1450 UTC 14 August 2022
Temperature: 23.0°C (73°F)
Dewpoint: 12.0°C (54°F) [RH = 50%]
Pressure (altimeter): 29.94 inches Hg (1014.0 mb)
Winds: variable direction winds at 2 MPH (2 knots; 1.0 m/s)
Visibility: 6 or more miles (10+ km)
Ceiling: ceiling and visibility are OK
Clouds: unknown
Weather: no significant weather observed at this time